createdAt,value
2023-05-19T00:00:34.166Z,456.40
2023-05-19T00:01:34.024Z,423.07
2023-05-19T00:02:34.192Z,419.37
2023-05-19T00:03:34.071Z,421.47
2023-05-19T00:04:34.089Z,420.94
2023-05-19T00:05:34.085Z,412.67
2023-05-19T00:06:33.980Z,395.19
2023-05-19T00:07:33.979Z,403.74
2023-05-19T00:08:33.946Z,393.80
2023-05-19T00:09:33.962Z,383.90
2023-05-19T00:10:34.124Z,367.08
2023-05-19T00:11:33.981Z,368.72
2023-05-19T00:12:33.929Z,366.27
2023-05-19T00:13:33.913Z,385.89
2023-05-19T00:14:33.937Z,388.56
2023-05-19T00:15:33.902Z,372.88
2023-05-19T00:16:33.891Z,385.44
2023-05-19T00:17:33.943Z,393.57
2023-05-19T00:18:33.876Z,379.56
2023-05-19T00:19:33.875Z,384.34
2023-05-19T00:20:33.997Z,379.99
2023-05-19T00:21:33.814Z,370.37
2023-05-19T00:22:33.800Z,380.21
2023-05-19T00:23:33.800Z,388.79
2023-05-19T00:24:33.827Z,387.44
2023-05-19T00:25:33.789Z,389.69
2023-05-19T00:26:33.765Z,383.46
2023-05-19T00:27:33.767Z,370.37
2023-05-19T00:28:33.839Z,362.25
2023-05-19T00:29:33.798Z,369.54
2023-05-19T00:30:33.985Z,371.62
2023-05-19T00:31:33.731Z,369.13
2023-05-19T00:32:34.491Z,382.81
2023-05-19T00:33:33.677Z,401.81
2023-05-19T00:34:33.739Z,405.20
2023-05-19T00:35:33.680Z,412.16
2023-05-19T00:36:33.688Z,421.21
2023-05-19T00:37:33.675Z,403.02
2023-05-19T00:38:33.638Z,379.35
2023-05-19T00:39:33.701Z,382.15
2023-05-19T00:40:33.968Z,372.88
2023-05-19T00:41:33.611Z,368.72
2023-05-19T00:42:33.640Z,361.46
2023-05-19T00:43:33.632Z,367.08
2023-05-19T00:44:33.578Z,378.28
2023-05-19T00:45:33.635Z,384.78
2023-05-19T00:46:33.649Z,380.64
2023-05-19T00:47:33.677Z,361.86
2023-05-19T00:48:33.546Z,357.55
2023-05-19T00:49:33.515Z,359.10
2023-05-19T00:50:33.845Z,353.72
2023-05-19T00:51:33.531Z,356.78
2023-05-19T00:52:33.491Z,348.50
2023-05-19T00:53:33.541Z,349.24
2023-05-19T00:54:33.501Z,331.72
2023-05-19T00:55:33.464Z,337.82
2023-05-19T00:56:33.517Z,333.39
2023-05-19T00:57:33.431Z,324.87
2023-05-19T00:58:33.524Z,320.15
2023-05-19T00:59:33.483Z,317.69
2023-05-19T01:00:33.747Z,308.79
2023-05-19T01:01:33.603Z,305.36
2023-05-19T01:02:33.470Z,304.52
2023-05-19T01:03:33.464Z,305.93
2023-05-19T01:04:33.386Z,300.10
2023-05-19T01:05:33.489Z,293.18
2023-05-19T01:06:33.359Z,296.86
2023-05-19T01:07:33.384Z,297.67
2023-05-19T01:08:33.343Z,309.08
2023-05-19T01:09:33.341Z,297.67
2023-05-19T01:10:33.524Z,296.60
2023-05-19T01:11:33.337Z,292.92
2023-05-19T01:12:33.331Z,285.83
2023-05-19T01:13:33.288Z,287.82
2023-05-19T01:14:33.329Z,302.02
2023-05-19T01:15:33.331Z,292.92
2023-05-19T01:16:33.379Z,290.35
2023-05-19T01:17:33.322Z,286.82
2023-05-19T01:18:33.230Z,279.54
2023-05-19T01:19:33.246Z,281.69
2023-05-19T01:20:33.472Z,276.50
2023-05-19T01:21:33.232Z,274.21
2023-05-19T01:22:33.209Z,271.73
2023-05-19T01:23:33.183Z,268.42
2023-05-19T01:24:33.167Z,266.69
2023-05-19T01:25:33.334Z,269.08
2023-05-19T01:26:33.143Z,268.64
2023-05-19T01:27:33.195Z,264.34
2023-05-19T01:28:33.132Z,259.36
2023-05-19T01:29:33.117Z,254.96
2023-05-19T01:30:33.269Z,256.95
2023-05-19T01:31:33.157Z,249.38
2023-05-19T01:32:33.141Z,246.23
2023-05-19T01:33:33.139Z,251.09
2023-05-19T01:34:33.073Z,248.82
2023-05-19T01:35:33.055Z,241.02
2023-05-19T01:36:33.048Z,241.20
2023-05-19T01:37:33.047Z,240.15
2023-05-19T01:38:33.066Z,240.15
2023-05-19T01:39:33.034Z,242.26
2023-05-19T01:40:33.222Z,250.14
2023-05-19T01:41:33.043Z,242.61
2023-05-19T01:42:32.999Z,235.36
2023-05-19T01:43:33.021Z,235.19
2023-05-19T01:44:33.053Z,236.71
2023-05-19T01:45:33.057Z,228.21
2023-05-19T01:46:33.064Z,225.72
2023-05-19T01:47:32.951Z,228.52
2023-05-19T01:48:32.936Z,222.08
2023-05-19T01:49:32.967Z,224.49
2023-05-19T01:50:33.221Z,222.08
2023-05-19T01:51:32.911Z,222.38
2023-05-19T01:52:32.973Z,217.83
2023-05-19T01:53:32.907Z,218.99
2023-05-19T01:54:32.905Z,222.83
2023-05-19T01:55:32.885Z,222.68
2023-05-19T01:56:32.873Z,221.33
2023-05-19T01:57:32.838Z,226.96
2023-05-19T01:58:32.884Z,231.89
2023-05-19T01:59:32.819Z,231.89
2023-05-19T02:00:33.216Z,239.10
2023-05-19T02:01:32.925Z,238.24
2023-05-19T02:02:32.850Z,223.28
2023-05-19T02:03:32.809Z,225.26
2023-05-19T02:04:32.816Z,230.76
2023-05-19T02:05:32.756Z,229.00
2023-05-19T02:06:32.801Z,230.28
2023-05-19T02:07:32.781Z,226.18
2023-05-19T02:08:32.736Z,226.96
2023-05-19T02:09:32.708Z,227.74
2023-05-19T02:10:32.995Z,223.88
2023-05-19T02:11:32.717Z,218.12
2023-05-19T02:12:32.697Z,215.14
2023-05-19T02:13:32.743Z,215.42
2023-05-19T02:14:32.737Z,223.28
2023-05-19T02:15:32.672Z,222.08
2023-05-19T02:16:32.649Z,223.73
2023-05-19T02:17:32.687Z,221.63
2023-05-19T02:18:32.640Z,228.21
2023-05-19T02:19:32.629Z,230.12
2023-05-19T02:20:32.955Z,225.72
2023-05-19T02:21:32.618Z,220.01
2023-05-19T02:22:32.583Z,215.84
2023-05-19T02:23:32.585Z,210.35
2023-05-19T02:24:32.554Z,211.56
2023-05-19T02:25:32.580Z,217.83
2023-05-19T02:26:32.539Z,218.70
2023-05-19T02:27:32.576Z,222.68
2023-05-19T02:28:32.545Z,221.04
2023-05-19T02:29:32.502Z,216.41
2023-05-19T02:30:32.729Z,216.98
2023-05-19T02:31:32.557Z,218.26
2023-05-19T02:32:32.549Z,212.38
2023-05-19T02:33:32.526Z,216.55
2023-05-19T02:34:32.458Z,218.26
2023-05-19T02:35:32.463Z,209.81
2023-05-19T02:36:32.449Z,207.31
2023-05-19T02:37:32.461Z,199.80
2023-05-19T02:38:32.476Z,192.36
2023-05-19T02:39:32.411Z,195.20
2023-05-19T02:40:32.547Z,194.74
2023-05-19T02:41:32.392Z,194.74
2023-05-19T02:42:32.406Z,195.66
2023-05-19T02:43:32.396Z,199.43
2023-05-19T02:44:32.426Z,199.07
2023-05-19T02:45:32.414Z,194.16
2023-05-19T02:46:32.661Z,191.69
2023-05-19T02:47:33.634Z,188.73
2023-05-19T02:48:32.341Z,180.59
2023-05-19T02:49:32.319Z,178.86
2023-05-19T02:50:32.549Z,180.39
2023-05-19T02:51:32.352Z,183.74
2023-05-19T02:52:32.290Z,185.98
2023-05-19T02:53:32.361Z,181.56
2023-05-19T02:54:32.277Z,184.55
2023-05-19T02:55:32.246Z,184.75
2023-05-19T02:56:32.280Z,183.54
2023-05-19T02:57:32.282Z,185.36
2023-05-19T02:58:32.222Z,185.16
2023-05-19T02:59:32.299Z,181.36
2023-05-19T03:00:32.530Z,175.31
2023-05-19T03:01:32.276Z,176.23
2023-05-19T03:02:32.252Z,173.50
2023-05-19T03:03:32.300Z,172.26
2023-05-19T03:04:32.253Z,170.17
2023-05-19T03:05:32.146Z,168.12
2023-05-19T03:06:32.146Z,163.70
2023-05-19T03:07:32.140Z,158.31
2023-05-19T03:08:32.107Z,154.53
2023-05-19T03:09:32.119Z,148.78
2023-05-19T03:10:32.272Z,148.13
2023-05-19T03:11:32.150Z,154.67
2023-05-19T03:12:32.106Z,154.24
2023-05-19T03:13:32.093Z,156.25
2023-05-19T03:14:32.077Z,154.10
2023-05-19T03:15:32.121Z,152.70
2023-05-19T03:16:32.135Z,147.35
2023-05-19T03:17:32.179Z,143.94
2023-05-19T03:18:32.026Z,142.24
2023-05-19T03:19:31.998Z,144.68
2023-05-19T03:20:32.208Z,143.70
2023-05-19T03:21:32.250Z,145.44
2023-05-19T03:22:31.998Z,150.92
2023-05-19T03:23:32.034Z,149.84
2023-05-19T03:24:32.013Z,146.07
2023-05-19T03:25:31.957Z,144.31
2023-05-19T03:26:31.987Z,149.44
2023-05-19T03:27:31.965Z,156.98
2023-05-19T03:28:31.936Z,162.91
2023-05-19T03:29:31.939Z,167.46
2023-05-19T03:30:32.155Z,163.07
2023-05-19T03:31:31.942Z,157.42
2023-05-19T03:32:31.961Z,150.65
2023-05-19T03:33:31.955Z,149.18
2023-05-19T03:34:31.878Z,145.82
2023-05-19T03:35:31.884Z,141.04
2023-05-19T03:36:31.962Z,136.91
2023-05-19T03:37:31.829Z,134.50
2023-05-19T03:38:31.839Z,130.03
2023-05-19T03:39:31.843Z,123.99
2023-05-19T03:40:32.144Z,122.01
2023-05-19T03:41:31.803Z,122.36
2023-05-19T03:42:31.794Z,126.22
2023-05-19T03:43:31.783Z,126.12
2023-05-19T03:44:31.798Z,129.83
2023-05-19T03:45:31.785Z,133.12
2023-05-19T03:46:31.742Z,133.54
2023-05-19T03:47:31.800Z,131.24
2023-05-19T03:48:31.747Z,128.73
2023-05-19T03:49:31.737Z,129.03
2023-05-19T03:50:32.006Z,129.53
2023-05-19T03:51:31.685Z,128.63
2023-05-19T03:52:31.694Z,130.33
2023-05-19T03:53:31.762Z,130.84
2023-05-19T03:54:31.664Z,129.63
2023-05-19T03:55:31.653Z,124.91
2023-05-19T03:56:31.624Z,125.47
2023-05-19T03:57:31.619Z,123.26
2023-05-19T03:58:31.632Z,122.36
2023-05-19T03:59:31.648Z,115.07
2023-05-19T04:00:31.773Z,113.14
2023-05-19T04:01:31.585Z,110.61
2023-05-19T04:02:31.712Z,108.61
2023-05-19T04:03:31.608Z,104.43
2023-05-19T04:04:31.612Z,100.07
2023-05-19T04:05:31.566Z,99.60
2023-05-19T04:06:31.527Z,96.68
2023-05-19T04:07:31.601Z,97.97
2023-05-19T04:08:31.551Z,95.09
2023-05-19T04:09:31.507Z,92.25
2023-05-19T04:10:31.735Z,91.65
2023-05-19T04:11:31.504Z,89.88
2023-05-19T04:12:31.516Z,92.15
2023-05-19T04:13:31.473Z,94.88
2023-05-19T04:14:31.472Z,99.78
2023-05-19T04:15:31.497Z,103.40
2023-05-19T04:16:31.479Z,107.57
2023-05-19T04:17:31.490Z,105.61
2023-05-19T04:18:31.461Z,110.10
2023-05-19T04:19:31.449Z,115.07
2023-05-19T04:20:31.646Z,117.82
2023-05-19T04:21:31.404Z,117.57
2023-05-19T04:22:31.355Z,115.15
2023-05-19T04:23:31.465Z,117.08
2023-05-19T04:24:31.357Z,117.73
2023-05-19T04:25:31.425Z,118.48
2023-05-19T04:26:31.352Z,114.92
2023-05-19T04:27:31.349Z,113.44
2023-05-19T04:28:31.319Z,111.12
2023-05-19T04:29:31.326Z,113.29
2023-05-19T04:30:31.732Z,112.46
2023-05-19T04:31:31.400Z,112.16
2023-05-19T04:32:31.349Z,112.76
2023-05-19T04:33:31.284Z,111.41
2023-05-19T04:34:31.250Z,111.56
2023-05-19T04:35:31.246Z,108.54
2023-05-19T04:36:31.261Z,110.32
2023-05-19T04:37:31.260Z,109.39
2023-05-19T04:38:31.210Z,113.29
2023-05-19T04:39:31.237Z,119.32
2023-05-19T04:40:31.491Z,126.12
2023-05-19T04:41:31.237Z,118.23
2023-05-19T04:42:31.197Z,120.09
2023-05-19T04:43:31.164Z,120.61
2023-05-19T04:44:31.155Z,121.13
2023-05-19T04:45:31.165Z,125.94
2023-05-19T04:46:31.159Z,129.53
2023-05-19T04:47:31.159Z,138.72
2023-05-19T04:48:31.106Z,138.95
2023-05-19T04:49:31.107Z,134.18
2023-05-19T04:50:31.348Z,131.86
2023-05-19T04:51:31.114Z,136.69
2023-05-19T04:52:31.067Z,137.02
2023-05-19T04:53:31.077Z,136.24
2023-05-19T04:54:31.076Z,133.64
2023-05-19T04:55:31.070Z,136.24
2023-05-19T04:56:31.034Z,146.96
2023-05-19T04:57:31.037Z,146.07
2023-05-19T04:58:31.065Z,148.00
2023-05-19T04:59:30.991Z,148.91
2023-05-19T05:00:31.261Z,151.74
2023-05-19T05:01:31.057Z,151.33
2023-05-19T05:02:31.068Z,150.78
2023-05-19T05:03:31.173Z,155.24
2023-05-19T05:04:31.030Z,154.81
2023-05-19T05:05:30.949Z,146.71
2023-05-19T05:06:30.981Z,143.45
2023-05-19T05:07:32.321Z,146.20
2023-05-19T05:08:30.994Z,144.31
2023-05-19T05:09:30.918Z,144.44
2023-05-19T05:10:31.174Z,146.71
2023-05-19T05:11:30.863Z,149.18
2023-05-19T05:12:30.930Z,151.74
2023-05-19T05:13:30.873Z,161.19
2023-05-19T05:14:30.877Z,167.62
2023-05-19T05:15:30.829Z,171.03
2023-05-19T05:16:30.935Z,168.29
2023-05-19T05:17:30.885Z,172.08
2023-05-19T05:18:30.856Z,180.01
2023-05-19T05:19:31.000Z,176.23
2023-05-19T05:20:30.912Z,179.05
2023-05-19T05:21:30.773Z,188.95
2023-05-19T05:22:30.743Z,212.38
2023-05-19T05:23:30.804Z,219.71
2023-05-19T05:24:30.745Z,224.49
2023-05-19T05:25:30.883Z,242.08
2023-05-19T05:26:30.743Z,246.41
2023-05-19T05:27:30.761Z,230.28
2023-05-19T05:28:30.698Z,220.01
2023-05-19T05:29:30.692Z,220.45
2023-05-19T05:30:30.670Z,215.14
2023-05-19T05:31:30.727Z,211.29
2023-05-19T05:32:30.776Z,221.48
2023-05-19T05:33:30.682Z,234.19
2023-05-19T05:34:30.654Z,235.53
2023-05-19T05:35:30.836Z,225.72
2023-05-19T05:36:30.680Z,241.02
2023-05-19T05:37:30.645Z,238.93
2023-05-19T05:38:30.592Z,248.26
2023-05-19T05:39:30.644Z,251.85
2023-05-19T05:40:30.593Z,255.95
2023-05-19T05:41:30.564Z,272.63
2023-05-19T05:42:30.582Z,283.62
2023-05-19T05:43:30.590Z,293.44
2023-05-19T05:44:30.565Z,294.22
2023-05-19T05:45:30.765Z,282.17
2023-05-19T05:46:30.586Z,278.13
2023-05-19T05:47:30.585Z,289.33
2023-05-19T05:48:30.577Z,288.32
2023-05-19T05:49:30.502Z,284.35
2023-05-19T05:50:30.486Z,282.89
2023-05-19T05:51:30.461Z,278.13
2023-05-19T05:52:30.453Z,303.12
2023-05-19T05:53:30.467Z,303.68
2023-05-19T05:54:30.463Z,312.88
2023-05-19T05:55:30.517Z,314.67
2023-05-19T05:56:30.411Z,306.50
2023-05-19T05:57:30.401Z,302.85
2023-05-19T05:58:30.426Z,305.08
2023-05-19T05:59:30.412Z,318.30
2023-05-19T06:00:30.551Z,325.83
2023-05-19T06:01:30.402Z,315.87
2023-05-19T06:02:30.479Z,322.02
2023-05-19T06:03:30.358Z,333.05
2023-05-19T06:04:30.322Z,331.05
2023-05-19T06:05:30.371Z,350.72
2023-05-19T06:06:30.306Z,367.90
2023-05-19T06:07:30.291Z,351.10
2023-05-19T06:08:30.309Z,327.77
2023-05-19T06:09:30.370Z,330.39
2023-05-19T06:10:30.444Z,333.05
2023-05-19T06:11:30.413Z,334.74
2023-05-19T06:12:30.246Z,334.40
2023-05-19T06:13:30.218Z,342.72
2023-05-19T06:14:30.240Z,352.97
2023-05-19T06:15:30.575Z,352.97
2023-05-19T06:16:30.329Z,351.84
2023-05-19T06:17:30.270Z,346.31
2023-05-19T06:18:30.192Z,357.94
2023-05-19T06:19:30.207Z,369.54
2023-05-19T06:20:30.312Z,385.44
2023-05-19T06:21:30.157Z,378.49
2023-05-19T06:22:30.145Z,380.85
2023-05-19T06:23:30.196Z,378.92
2023-05-19T06:24:30.199Z,392.88
2023-05-19T06:25:30.363Z,391.96
2023-05-19T06:26:30.108Z,395.66
2023-05-19T06:27:30.603Z,387.89
2023-05-19T06:28:30.060Z,386.77
2023-05-19T06:29:30.131Z,398.24
2023-05-19T06:30:30.206Z,399.90
2023-05-19T06:31:30.099Z,426.02
2023-05-19T06:32:30.082Z,426.29
2023-05-19T06:33:30.041Z,419.37
2023-05-19T06:34:30.008Z,422.53
2023-05-19T06:35:30.076Z,426.29
2023-05-19T06:36:29.979Z,443.16
2023-05-19T06:37:29.985Z,442.57
2023-05-19T06:38:29.981Z,438.24
2023-05-19T06:39:30.003Z,452.11
2023-05-19T06:40:30.132Z,447.89
2023-05-19T06:41:29.950Z,437.96
2023-05-19T06:42:29.994Z,428.73
2023-05-19T06:43:29.916Z,426.02
2023-05-19T06:44:29.968Z,431.21
2023-05-19T06:45:29.956Z,434.56
2023-05-19T06:46:29.958Z,442.28
2023-05-19T06:47:30.036Z,448.18
2023-05-19T06:48:29.862Z,443.16
2023-05-19T06:49:29.863Z,460.16
2023-05-19T06:50:29.899Z,462.37
2023-05-19T06:51:29.902Z,452.11
2023-05-19T06:52:29.863Z,450.59
2023-05-19T06:53:29.850Z,450.89
2023-05-19T06:54:29.842Z,446.40
2023-05-19T06:55:29.796Z,448.18
2023-05-19T06:56:29.794Z,434.00
2023-05-19T06:57:29.794Z,428.19
2023-05-19T06:58:29.776Z,415.22
2023-05-19T06:59:29.925Z,387.44
2023-05-19T07:00:29.747Z,384.56
2023-05-19T07:01:29.782Z,408.16
2023-05-19T07:02:29.856Z,429.01
2023-05-19T07:03:29.839Z,424.13
2023-05-19T07:04:29.765Z,422.53
2023-05-19T07:05:29.699Z,436.54
2023-05-19T07:06:29.685Z,443.16
2023-05-19T07:07:29.718Z,446.69
2023-05-19T07:08:29.666Z,450.29
2023-05-19T07:09:29.720Z,460.79
2023-05-19T07:10:30.331Z,468.17
2023-05-19T07:11:29.636Z,478.85
2023-05-19T07:12:29.711Z,470.47
2023-05-19T07:13:29.651Z,471.46
2023-05-19T07:14:29.607Z,481.25
2023-05-19T07:15:29.592Z,499.87
2023-05-19T07:16:29.647Z,515.60
2023-05-19T07:17:29.596Z,541.80
2023-05-19T07:18:29.564Z,551.58
2023-05-19T07:19:29.652Z,560.79
2023-05-19T07:20:29.583Z,574.70
2023-05-19T07:21:29.576Z,575.69
2023-05-19T07:22:29.570Z,585.73
2023-05-19T07:23:29.496Z,574.21
2023-05-19T07:24:29.535Z,556.61
2023-05-19T07:25:29.575Z,579.16
2023-05-19T07:26:29.534Z,571.28
2023-05-19T07:27:29.488Z,573.23
2023-05-19T07:28:29.465Z,576.68
2023-05-19T07:29:29.556Z,589.32
2023-05-19T07:30:29.432Z,604.16
2023-05-19T07:31:29.613Z,586.24
2023-05-19T07:32:29.444Z,566.47
2023-05-19T07:33:29.404Z,526.92
2023-05-19T07:34:29.385Z,492.54
2023-05-19T07:35:29.538Z,474.45
2023-05-19T07:36:29.371Z,452.41
2023-05-19T07:37:29.349Z,465.90
2023-05-19T07:38:29.355Z,446.99
2023-05-19T07:39:29.381Z,464.61
2023-05-19T07:40:29.323Z,471.79
2023-05-19T07:41:29.568Z,448.18
2023-05-19T07:42:29.297Z,459.21
2023-05-19T07:43:29.283Z,454.86
2023-05-19T07:44:29.283Z,459.21
2023-05-19T07:45:29.327Z,474.12
2023-05-19T07:46:29.374Z,499.50
2023-05-19T07:47:29.309Z,518.39
2023-05-19T07:48:29.268Z,498.76
2023-05-19T07:49:29.256Z,502.86
2023-05-19T07:50:29.214Z,469.48
2023-05-19T07:51:29.255Z,496.55
2023-05-19T07:52:29.222Z,473.12
2023-05-19T07:53:29.251Z,467.85
2023-05-19T07:54:29.187Z,481.94
2023-05-19T07:55:29.181Z,515.21
2023-05-19T07:56:29.192Z,519.99
2023-05-19T07:57:29.208Z,522.01
2023-05-19T07:58:29.156Z,519.19
2023-05-19T07:59:29.128Z,553.40
2023-05-19T08:00:29.126Z,565.51
2023-05-19T08:01:29.117Z,573.23
2023-05-19T08:02:29.184Z,561.73
2023-05-19T08:03:29.385Z,558.92
2023-05-19T08:04:29.111Z,566.47
2023-05-19T08:05:29.132Z,560.79
2023-05-19T08:06:29.068Z,592.96
2023-05-19T08:07:29.056Z,599.85
2023-05-19T08:08:29.096Z,599.31
2023-05-19T08:09:29.038Z,579.16
2023-05-19T08:10:29.025Z,558.92
2023-05-19T08:11:29.079Z,555.69
2023-05-19T08:12:29.029Z,542.67
2023-05-19T08:13:29.029Z,547.98
2023-05-19T08:14:28.989Z,541.80
2023-05-19T08:15:29.063Z,548.43
2023-05-19T08:16:29.040Z,623.79
2023-05-19T08:17:28.991Z,637.41
2023-05-19T08:18:28.951Z,629.05
2023-05-19T08:19:28.997Z,669.82
2023-05-19T08:20:28.942Z,719.30
2023-05-19T08:21:28.968Z,727.87
2023-05-19T08:22:28.919Z,738.27
2023-05-19T08:23:28.900Z,766.82
2023-05-19T08:24:28.878Z,784.71
2023-05-19T08:25:28.943Z,782.89
2023-05-19T08:26:28.938Z,774.77
2023-05-19T08:27:28.848Z,793.98
2023-05-19T08:28:28.861Z,766.82
2023-05-19T08:29:28.831Z,790.25
2023-05-19T08:30:28.823Z,786.09
2023-05-19T08:31:28.832Z,811.71
2023-05-19T08:32:28.835Z,782.43
2023-05-19T08:33:28.777Z,748.47
2023-05-19T08:34:28.787Z,753.92
2023-05-19T08:35:28.794Z,784.26
2023-05-19T08:36:28.748Z,791.18
2023-05-19T08:37:28.835Z,811.71
2023-05-19T08:38:28.830Z,795.86
2023-05-19T08:39:28.720Z,754.35
2023-05-19T08:40:28.715Z,752.24
2023-05-19T08:41:28.779Z,742.35
2023-05-19T08:42:28.687Z,824.14
2023-05-19T08:43:28.759Z,876.22
2023-05-19T08:44:28.723Z,877.94
2023-05-19T08:45:28.656Z,921.23
2023-05-19T08:46:28.706Z,947.18
2023-05-19T08:47:28.653Z,945.19
2023-05-19T08:48:28.698Z,944.52
2023-05-19T08:49:28.682Z,952.55
2023-05-19T08:50:28.621Z,963.47
2023-05-19T08:51:28.617Z,932.73
2023-05-19T08:52:28.594Z,927.59
2023-05-19T08:54:28.559Z,891.91
2023-05-19T08:55:28.567Z,884.29
2023-05-19T08:56:28.603Z,926.95
2023-05-19T08:57:28.551Z,931.44
2023-05-19T08:58:28.926Z,917.46
2023-05-19T08:59:28.534Z,860.52
2023-05-19T09:00:28.518Z,840.62
2023-05-19T09:01:28.631Z,886.03
2023-05-19T09:02:28.556Z,910.01
2023-05-19T09:03:28.564Z,916.84
2023-05-19T09:04:30.104Z,906.33
2023-05-19T09:05:28.555Z,894.28
2023-05-19T09:06:28.446Z,856.14
2023-05-19T09:07:28.444Z,849.65
2023-05-19T09:08:28.430Z,868.86
2023-05-19T09:09:28.454Z,865.51
2023-05-19T09:10:29.181Z,882.55
2023-05-19T09:11:28.416Z,884.87
2023-05-19T09:12:28.405Z,905.72
2023-05-19T09:13:28.391Z,937.93
2023-05-19T09:14:28.425Z,937.28
2023-05-19T09:15:28.375Z,956.61
2023-05-19T09:16:30.196Z,964.16
2023-05-19T09:17:28.431Z,986.07
2023-05-19T09:18:28.349Z,1011.28
2023-05-19T09:19:28.480Z,1016.63
2023-05-19T09:20:28.316Z,991.89
2023-05-19T09:21:28.293Z,954.58
2023-05-19T09:22:28.310Z,990.43
2023-05-19T09:23:28.260Z,988.97
2023-05-19T09:24:28.259Z,990.43
2023-05-19T09:25:28.274Z,1031.44
2023-05-19T09:26:28.225Z,998.52
2023-05-19T09:27:28.252Z,884.87
2023-05-19T09:28:28.216Z,896.07
2023-05-19T09:29:28.254Z,873.38
2023-05-19T09:30:28.195Z,863.84
2023-05-19T09:31:28.267Z,823.13
2023-05-19T09:32:28.246Z,776.11
2023-05-19T09:33:28.159Z,688.35
2023-05-19T09:34:28.191Z,645.37
2023-05-19T09:35:28.140Z,671.83
2023-05-19T09:36:28.136Z,704.96
2023-05-19T09:37:28.142Z,748.89
2023-05-19T09:38:28.169Z,769.45
2023-05-19T09:39:28.100Z,755.62
2023-05-19T09:40:28.137Z,800.59
2023-05-19T09:41:28.085Z,821.62
2023-05-19T09:42:28.078Z,793.04
2023-05-19T09:43:28.065Z,811.22
2023-05-19T09:44:28.079Z,837.48
2023-05-19T09:45:28.034Z,867.74
2023-05-19T09:46:28.099Z,846.44
2023-05-19T09:47:28.082Z,862.18
2023-05-19T09:48:28.002Z,867.18
2023-05-19T09:49:27.996Z,849.65
2023-05-19T09:50:28.002Z,915.59
2023-05-19T09:51:27.980Z,964.16
2023-05-19T09:52:27.977Z,934.68
2023-05-19T09:53:27.948Z,902.68
2023-05-19T09:54:27.937Z,902.08
2023-05-19T09:55:27.944Z,875.65
2023-05-19T09:56:27.968Z,859.97
2023-05-19T09:57:27.924Z,817.63
2023-05-19T09:58:27.975Z,840.62
2023-05-19T09:59:30.493Z,846.44
2023-05-19T10:00:27.900Z,827.69
2023-05-19T10:01:27.921Z,873.94
2023-05-19T10:02:27.912Z,952.55
2023-05-19T10:03:27.859Z,978.89
2023-05-19T10:04:27.941Z,919.97
2023-05-19T10:05:27.850Z,934.03
2023-05-19T10:06:27.840Z,893.09
2023-05-19T10:07:27.877Z,853.97
2023-05-19T10:08:27.792Z,846.44
2023-05-19T10:09:27.837Z,891.91
2023-05-19T10:10:27.806Z,942.54
2023-05-19T10:11:27.777Z,974.64
2023-05-19T10:12:27.774Z,1015.86
2023-05-19T10:13:27.749Z,997.03
2023-05-19T10:14:27.741Z,1006.74
2023-05-19T10:15:27.738Z,982.47
2023-05-19T10:16:27.779Z,942.54
2023-05-19T10:17:27.739Z,945.85
2023-05-19T10:18:27.848Z,977.47
2023-05-19T10:19:27.866Z,987.52
2023-05-19T10:20:27.720Z,996.30
2023-05-19T10:21:27.698Z,987.52
2023-05-19T10:22:27.695Z,991.16
2023-05-19T10:23:27.640Z,955.26
2023-05-19T10:24:27.687Z,907.56
2023-05-19T10:25:27.627Z,994.82
2023-05-19T10:26:27.651Z,1046.69
2023-05-19T10:27:27.614Z,1082.93
2023-05-19T10:28:27.582Z,1113.41
2023-05-19T10:29:27.567Z,1081.19
2023-05-19T10:30:27.576Z,1063.24
2023-05-19T10:31:27.595Z,1025.15
2023-05-19T10:32:27.702Z,1025.93
2023-05-19T10:33:27.595Z,1002.23
2023-05-19T10:34:27.567Z,982.47
2023-05-19T10:35:27.532Z,924.40
2023-05-19T10:36:27.518Z,833.33
2023-05-19T10:37:27.530Z,877.94
2023-05-19T10:38:27.528Z,901.47
2023-05-19T10:39:27.462Z,930.15
2023-05-19T10:40:27.471Z,986.07
2023-05-19T10:41:27.446Z,988.97
2023-05-19T10:42:27.478Z,949.86
2023-05-19T10:43:27.471Z,994.09
2023-05-19T10:44:27.486Z,1061.56
2023-05-19T10:45:27.402Z,1084.68
2023-05-19T10:46:27.526Z,1103.36
2023-05-19T10:47:27.543Z,1109.74
2023-05-19T10:48:27.378Z,1106.08
2023-05-19T10:49:27.382Z,1101.56
2023-05-19T10:50:27.358Z,1096.17
2023-05-19T10:51:27.340Z,1111.57
2023-05-19T10:52:27.405Z,1057.39
2023-05-19T10:53:27.338Z,1057.39
2023-05-19T10:54:27.314Z,1050.78
2023-05-19T10:55:27.319Z,1064.92
2023-05-19T10:56:27.355Z,1082.93
2023-05-19T10:57:27.312Z,1073.42
2023-05-19T10:58:27.328Z,1035.41
2023-05-19T10:59:27.933Z,999.26
2023-05-19T11:00:27.260Z,1028.29
2023-05-19T11:01:27.253Z,1021.26
2023-05-19T11:02:27.261Z,1061.56
2023-05-19T11:03:27.325Z,1062.40
2023-05-19T11:04:27.250Z,1087.31
2023-05-19T11:05:27.226Z,1109.74
2023-05-19T11:06:27.210Z,1123.64
2023-05-19T11:07:27.235Z,1119.90
2023-05-19T11:08:27.162Z,1166.52
2023-05-19T11:09:37.847Z,1178.79
2023-05-19T11:10:27.182Z,1166.52
2023-05-19T11:11:27.236Z,1167.53
2023-05-19T11:12:27.173Z,1151.54
2023-05-19T11:13:28.411Z,1153.52
2023-05-19T11:14:27.115Z,1107.91
2023-05-19T11:15:27.106Z,1085.55
2023-05-19T11:16:27.165Z,1058.22
2023-05-19T11:17:27.102Z,1049.14
2023-05-19T11:18:27.093Z,1054.07
2023-05-19T11:19:27.127Z,1063.24
2023-05-19T11:20:27.048Z,1058.22
2023-05-19T11:21:27.093Z,1058.22
2023-05-19T11:22:27.056Z,1075.14
2023-05-19T11:23:27.050Z,1050.78
2023-05-19T11:24:27.001Z,1060.72
2023-05-19T11:25:26.987Z,1049.96
2023-05-19T11:26:26.993Z,1049.14
2023-05-19T11:27:26.999Z,1051.60
2023-05-19T11:28:26.965Z,1050.78
2023-05-19T11:29:26.985Z,1059.89
2023-05-19T11:30:26.950Z,1056.56
2023-05-19T11:31:26.974Z,1082.06
2023-05-19T11:32:27.002Z,1058.22
2023-05-19T11:33:26.920Z,1050.78
2023-05-19T11:34:26.908Z,1037.81
2023-05-19T11:35:26.949Z,1020.48
2023-05-19T11:36:26.869Z,1027.50
2023-05-19T11:37:26.880Z,1059.89
2023-05-19T11:38:26.973Z,1040.22
2023-05-19T11:39:26.873Z,1025.93
2023-05-19T11:40:26.873Z,982.47
2023-05-19T11:41:26.871Z,919.97
2023-05-19T11:42:26.833Z,955.93
2023-05-19T11:43:26.827Z,1020.48
2023-05-19T11:44:26.799Z,1057.39
2023-05-19T11:45:26.812Z,1086.43
2023-05-19T11:46:26.831Z,1088.19
2023-05-19T11:47:26.839Z,1058.22
2023-05-19T11:48:26.854Z,1086.43
2023-05-19T11:49:26.776Z,1073.42
2023-05-19T11:50:26.769Z,1067.46
2023-05-19T11:51:26.770Z,1119.90
2023-05-19T11:52:26.709Z,1136.94
2023-05-19T11:53:26.725Z,1118.04
2023-05-19T11:54:26.766Z,1142.73
2023-05-19T11:55:26.677Z,1122.70
2023-05-19T11:56:26.724Z,1069.16
2023-05-19T11:57:26.678Z,1104.27
2023-05-19T11:58:26.680Z,1110.65
2023-05-19T11:59:26.672Z,1097.96
2023-05-19T12:00:26.650Z,1067.46
2023-05-19T12:01:26.626Z,1047.51
2023-05-19T12:02:26.729Z,1064.08
2023-05-19T12:03:26.667Z,1074.28
2023-05-19T12:04:26.626Z,1059.89
2023-05-19T12:05:26.686Z,1047.51
2023-05-19T12:06:26.617Z,1069.16
2023-05-19T12:07:26.603Z,1126.46
2023-05-19T12:08:26.587Z,1155.50
2023-05-19T12:09:26.555Z,1135.02
2023-05-19T12:10:26.526Z,1084.68
2023-05-19T12:11:26.520Z,1041.02
2023-05-19T12:12:26.531Z,1010.52
2023-05-19T12:13:26.533Z,997.03
2023-05-19T12:14:26.539Z,972.52
2023-05-19T12:15:26.472Z,977.47
2023-05-19T12:16:26.597Z,981.75
2023-05-19T12:17:26.475Z,957.98
2023-05-19T12:18:26.504Z,947.85
2023-05-19T12:19:26.578Z,937.28
2023-05-19T12:20:26.428Z,900.87
2023-05-19T12:21:34.303Z,896.07
2023-05-19T12:22:26.417Z,885.45
2023-05-19T12:23:26.442Z,895.47
2023-05-19T12:24:26.415Z,903.90
2023-05-19T12:25:26.408Z,960.71
2023-05-19T12:26:26.397Z,989.70